sensor_id;sensor_type;location;lat;lon;timestamp;pressure;altitude;pressure_sealevel;temperature;humidity
7178;BME280;3630;42.146;24.756;2023-03-01T00:00:04;100261.88;;;7.99;100.00
7178;BME280;3630;42.146;24.756;2023-03-01T00:02:34;100256.97;;;7.83;100.00
7178;BME280;3630;42.146;24.756;2023-03-01T00:05:01;100258.78;;;7.85;100.00
7178;BME280;3630;42.146;24.756;2023-03-01T00:07:27;100258.19;;;7.92;100.00
7178;BME280;3630;42.146;24.756;2023-03-01T00:09:54;100266.66;;;7.91;100.00
7178;BME280;3630;42.146;24.756;2023-03-01T00:12:21;100274.53;;;7.96;100.00
7178;BME280;3630;42.146;24.756;2023-03-01T00:14:48;100270.97;;;7.92;100.00
7178;BME280;3630;42.146;24.756;2023-03-01T00:17:15;100254.34;;;7.81;100.00
7178;BME280;3630;42.146;24.756;2023-03-01T00:19:43;100265.50;;;7.83;100.00
7178;BME280;3630;42.146;24.756;2023-03-01T00:22:10;100261.63;;;7.93;100.00
7178;BME280;3630;42.146;24.756;2023-03-01T00:24:37;100269.97;;;7.89;100.00
7178;BME280;3630;42.146;24.756;2023-03-01T00:27:04;100263.38;;;7.94;100.00
7178;BME280;3630;42.146;24.756;2023-03-01T00:29:30;100260.06;;;7.96;100.00
7178;BME280;3630;42.146;24.756;2023-03-01T00:31:57;100268.59;;;7.97;100.00
7178;BME280;3630;42.146;24.756;2023-03-01T00:34:24;100264.94;;;7.90;100.00
7178;BME280;3630;42.146;24.756;2023-03-01T00:36:52;100265.63;;;7.86;100.00
7178;BME280;3630;42.146;24.756;2023-03-01T00:39:19;100259.88;;;7.92;100.00
7178;BME280;3630;42.146;24.756;2023-03-01T00:41:46;100251.50;;;7.96;100.00
7178;BME280;3630;42.146;24.756;2023-03-01T00:44:13;100252.91;;;7.88;100.00
7178;BME280;3630;42.146;24.756;2023-03-01T00:46:39;100246.53;;;7.78;100.00
7178;BME280;3630;42.146;24.756;2023-03-01T00:49:06;100240.75;;;7.82;100.00
7178;BME280;3630;42.146;24.756;2023-03-01T00:51:33;100237.59;;;7.89;100.00
7178;BME280;3630;42.146;24.756;2023-03-01T00:54:02;100235.00;;;7.88;100.00
7178;BME280;3630;42.146;24.756;2023-03-01T00:56:29;100235.25;;;7.94;100.00
7178;BME280;3630;42.146;24.756;2023-03-01T00:58:56;100219.97;;;7.97;100.00
7178;BME280;3630;42.146;24.756;2023-03-01T01:01:24;100231.97;;;7.98;100.00
7178;BME280;3630;42.146;24.756;2023-03-01T01:03:54;100208.06;;;7.97;100.00
7178;BME280;3630;42.146;24.756;2023-03-01T01:06:23;100222.88;;;8.06;100.00
7178;BME280;3630;42.146;24.756;2023-03-01T01:08:50;100217.78;;;8.06;100.00
7178;BME280;3630;42.146;24.756;2023-03-01T01:11:20;100219.56;;;8.08;100.00
7178;BME280;3630;42.146;24.756;2023-03-01T01:13:47;100216.31;;;8.12;100.00
7178;BME280;3630;42.146;24.756;2023-03-01T01:16:15;100218.25;;;8.18;100.00
7178;BME280;3630;42.146;24.756;2023-03-01T01:18:42;100215.72;;;8.19;100.00
7178;BME280;3630;42.146;24.756;2023-03-01T01:21:10;100214.81;;;8.17;100.00
7178;BME280;3630;42.146;24.756;2023-03-01T01:23:38;100213.13;;;8.18;100.00
7178;BME280;3630;42.146;24.756;2023-03-01T01:26:06;100207.59;;;8.07;100.00
7178;BME280;3630;42.146;24.756;2023-03-01T01:28:35;100215.59;;;8.16;100.00
7178;BME280;3630;42.146;24.756;2023-03-01T01:31:02;100219.03;;;8.17;100.00
7178;BME280;3630;42.146;24.756;2023-03-01T01:33:29;100209.22;;;8.05;100.00
7178;BME280;3630;42.146;24.756;2023-03-01T01:35:56;100205.84;;;8.06;100.00
7178;BME280;3630;42.146;24.756;2023-03-01T01:38:23;100209.09;;;8.02;100.00
7178;BME280;3630;42.146;24.756;2023-03-01T01:40:50;100207.59;;;8.07;100.00
7178;BME280;3630;42.146;24.756;2023-03-01T01:43:22;100200.63;;;8.03;100.00
7178;BME280;3630;42.146;24.756;2023-03-01T01:45:53;100203.06;;;8.00;100.00
7178;BME280;3630;42.146;24.756;2023-03-01T01:48:23;100205.44;;;7.96;100.00
7178;BME280;3630;42.146;24.756;2023-03-01T01:50:55;100211.22;;;7.90;100.00
7178;BME280;3630;42.146;24.756;2023-03-01T01:53:24;100206.13;;;7.92;100.00
7178;BME280;3630;42.146;24.756;2023-03-01T01:55:54;100201.13;;;7.95;100.00
7178;BME280;3630;42.146;24.756;2023-03-01T01:58:25;100195.78;;;7.89;100.00
7178;BME280;3630;42.146;24.756;2023-03-01T02:00:54;100195.03;;;7.91;100.00
7178;BME280;3630;42.146;24.756;2023-03-01T02:03:26;100195.66;;;7.86;100.00
7178;BME280;3630;42.146;24.756;2023-03-01T02:05:58;100197.50;;;7.88;100.00
7178;BME280;3630;42.146;24.756;2023-03-01T02:08:29;100155.03;;;7.71;100.00
7178;BME280;3630;42.146;24.756;2023-03-01T02:10:58;100193.75;;;8.02;100.00
7178;BME280;3630;42.146;24.756;2023-03-01T02:13:26;100197.13;;;8.01;100.00
7178;BME280;3630;42.146;24.756;2023-03-01T02:15:54;100198.00;;;8.02;100.00
7178;BME280;3630;42.146;24.756;2023-03-01T02:18:23;100197.19;;;8.03;100.00
7178;BME280;3630;42.146;24.756;2023-03-01T02:21:08;100186.19;;;8.05;100.00
7178;BME280;3630;42.146;24.756;2023-03-01T02:23:40;100189.56;;;8.04;100.00
7178;BME280;3630;42.146;24.756;2023-03-01T02:26:11;100177.19;;;7.93;100.00
7178;BME280;3630;42.146;24.756;2023-03-01T02:28:45;100174.34;;;7.85;100.00
7178;BME280;3630;42.146;24.756;2023-03-01T02:31:16;100190.97;;;7.96;100.00
7178;BME280;3630;42.146;24.756;2023-03-01T02:34:00;100194.63;;;7.81;100.00
7178;BME280;3630;42.146;24.756;2023-03-01T02:36:31;100193.03;;;7.83;100.00
7178;BME280;3630;42.146;24.756;2023-03-01T02:39:08;100193.06;;;7.84;100.00
7178;BME280;3630;42.146;24.756;2023-03-01T02:41:41;100197.59;;;7.91;100.00
7178;BME280;3630;42.146;24.756;2023-03-01T02:44:10;100192.53;;;7.93;100.00
7178;BME280;3630;42.146;24.756;2023-03-01T02:46:43;100194.19;;;7.91;100.00
7178;BME280;3630;42.146;24.756;2023-03-01T02:49:22;100187.31;;;7.90;100.00
7178;BME280;3630;42.146;24.756;2023-03-01T02:52:01;100185.22;;;7.80;100.00
7178;BME280;3630;42.146;24.756;2023-03-01T02:54:35;100196.38;;;7.82;100.00
7178;BME280;3630;42.146;24.756;2023-03-01T02:57:03;100188.53;;;7.77;100.00
7178;BME280;3630;42.146;24.756;2023-03-01T02:59:33;100185.50;;;7.65;100.00
7178;BME280;3630;42.146;24.756;2023-03-01T03:02:04;100188.22;;;7.69;100.00
7178;BME280;3630;42.146;24.756;2023-03-01T03:04:31;100188.00;;;7.63;100.00
7178;BME280;3630;42.146;24.756;2023-03-01T03:06:58;100187.88;;;7.60;100.00
7178;BME280;3630;42.146;24.756;2023-03-01T03:09:25;100192.00;;;7.57;100.00
7178;BME280;3630;42.146;24.756;2023-03-01T03:11:52;100193.97;;;7.64;100.00
7178;BME280;3630;42.146;24.756;2023-03-01T03:14:19;100181.63;;;7.75;100.00
7178;BME280;3630;42.146;24.756;2023-03-01T03:16:49;100187.47;;;7.72;100.00
7178;BME280;3630;42.146;24.756;2023-03-01T03:19:16;100186.63;;;7.71;100.00
7178;BME280;3630;42.146;24.756;2023-03-01T03:21:43;100188.97;;;7.67;100.00
7178;BME280;3630;42.146;24.756;2023-03-01T03:24:10;100181.31;;;7.67;100.00
7178;BME280;3630;42.146;24.756;2023-03-01T03:26:37;100179.09;;;7.76;100.00
7178;BME280;3630;42.146;24.756;2023-03-01T03:29:03;100175.19;;;7.86;100.00
7178;BME280;3630;42.146;24.756;2023-03-01T03:31:30;100184.97;;;7.96;100.00
7178;BME280;3630;42.146;24.756;2023-03-01T03:33:58;100183.50;;;8.02;100.00
7178;BME280;3630;42.146;24.756;2023-03-01T03:36:25;100185.25;;;7.81;100.00
7178;BME280;3630;42.146;24.756;2023-03-01T03:38:52;100189.69;;;7.85;100.00
7178;BME280;3630;42.146;24.756;2023-03-01T03:41:19;100179.78;;;7.94;100.00
7178;BME280;3630;42.146;24.756;2023-03-01T03:43:46;100177.66;;;7.83;100.00
7178;BME280;3630;42.146;24.756;2023-03-01T03:46:14;100180.38;;;7.87;100.00
7178;BME280;3630;42.146;24.756;2023-03-01T03:48:44;100172.59;;;7.84;100.00
7178;BME280;3630;42.146;24.756;2023-03-01T03:51:13;100165.56;;;7.79;100.00
7178;BME280;3630;42.146;24.756;2023-03-01T03:53:41;100162.88;;;7.76;100.00
7178;BME280;3630;42.146;24.756;2023-03-01T03:56:09;100117.06;;;7.37;100.00
7178;BME280;3630;42.146;24.756;2023-03-01T03:58:36;100165.31;;;7.50;100.00
7178;BME280;3630;42.146;24.756;2023-03-01T04:01:03;100185.38;;;7.62;100.00
7178;BME280;3630;42.146;24.756;2023-03-01T04:03:31;100185.44;;;7.63;100.00
7178;BME280;3630;42.146;24.756;2023-03-01T04:05:59;100184.56;;;7.63;100.00
7178;BME280;3630;42.146;24.756;2023-03-01T04:08:28;100179.38;;;7.61;100.00
7178;BME280;3630;42.146;24.756;2023-03-01T04:10:58;100177.53;;;7.57;100.00
7178;BME280;3630;42.146;24.756;2023-03-01T04:13:26;100165.84;;;7.64;100.00
7178;BME280;3630;42.146;24.756;2023-03-01T04:15:54;100179.97;;;7.54;100.00
7178;BME280;3630;42.146;24.756;2023-03-01T04:18:22;100179.38;;;7.61;100.00
7178;BME280;3630;42.146;24.756;2023-03-01T04:20:49;100183.41;;;7.55;100.00
7178;BME280;3630;42.146;24.756;2023-03-01T04:23:18;100188.66;;;7.58;100.00
7178;BME280;3630;42.146;24.756;2023-03-01T04:25:48;100182.91;;;7.63;100.00
7178;BME280;3630;42.146;24.756;2023-03-01T04:28:19;100183.94;;;7.68;100.00
7178;BME280;3630;42.146;24.756;2023-03-01T04:30:46;100179.00;;;7.73;100.00
7178;BME280;3630;42.146;24.756;2023-03-01T04:33:12;100179.00;;;7.73;100.00
7178;BME280;3630;42.146;24.756;2023-03-01T04:35:39;100179.88;;;7.73;100.00
7178;BME280;3630;42.146;24.756;2023-03-01T04:38:06;100188.34;;;7.72;100.00
7178;BME280;3630;42.146;24.756;2023-03-01T04:40:34;100195.56;;;7.60;100.00
7178;BME280;3630;42.146;24.756;2023-03-01T04:43:03;100198.78;;;7.56;100.00
7178;BME280;3630;42.146;24.756;2023-03-01T04:45:31;100205.16;;;7.66;100.00
7178;BME280;3630;42.146;24.756;2023-03-01T04:47:59;100197.34;;;7.63;100.00
7178;BME280;3630;42.146;24.756;2023-03-01T04:50:26;100199.22;;;7.67;100.00
7178;BME280;3630;42.146;24.756;2023-03-01T04:52:53;100193.31;;;7.47;100.00
7178;BME280;3630;42.146;24.756;2023-03-01T04:55:24;100178.69;;;7.43;100.00
7178;BME280;3630;42.146;24.756;2023-03-01T04:57:51;100187.13;;;7.63;100.00
7178;BME280;3630;42.146;24.756;2023-03-01T05:00:20;100200.09;;;7.67;100.00
7178;BME280;3630;42.146;24.756;2023-03-01T05:02:48;100190.72;;;7.68;100.00
7178;BME280;3630;42.146;24.756;2023-03-01T05:05:20;100190.84;;;7.71;100.00
7178;BME280;3630;42.146;24.756;2023-03-01T05:07:51;100177.03;;;7.66;100.00
7178;BME280;3630;42.146;24.756;2023-03-01T05:10:18;100180.63;;;7.71;100.00
7178;BME280;3630;42.146;24.756;2023-03-01T05:12:45;100189.34;;;7.76;100.00
7178;BME280;3630;42.146;24.756;2023-03-01T05:15:12;100188.69;;;7.82;100.00
7178;BME280;3630;42.146;24.756;2023-03-01T05:17:41;100165.56;;;7.56;100.00
7178;BME280;3630;42.146;24.756;2023-03-01T05:20:09;100194.41;;;7.75;100.00
7178;BME280;3630;42.146;24.756;2023-03-01T05:22:36;100178.19;;;7.74;100.00
7178;BME280;3630;42.146;24.756;2023-03-01T05:25:04;100184.50;;;7.61;100.00
7178;BME280;3630;42.146;24.756;2023-03-01T05:27:32;100188.94;;;7.65;100.00
7178;BME280;3630;42.146;24.756;2023-03-01T05:29:59;100188.28;;;7.71;100.00
7178;BME280;3630;42.146;24.756;2023-03-01T05:32:41;100193.28;;;7.68;100.00
7178;BME280;3630;42.146;24.756;2023-03-01T05:35:11;100194.34;;;7.73;100.00
7178;BME280;3630;42.146;24.756;2023-03-01T05:37:41;100196.22;;;7.77;100.00
7178;BME280;3630;42.146;24.756;2023-03-01T05:40:10;100199.41;;;7.71;100.00
7178;BME280;3630;42.146;24.756;2023-03-01T05:42:43;100203.53;;;7.68;100.00
7178;BME280;3630;42.146;24.756;2023-03-01T05:45:11;100197.47;;;7.66;100.00
7178;BME280;3630;42.146;24.756;2023-03-01T05:47:39;100199.91;;;7.63;100.00
7178;BME280;3630;42.146;24.756;2023-03-01T05:50:11;100203.88;;;7.55;100.00
7178;BME280;3630;42.146;24.756;2023-03-01T05:52:39;100207.00;;;7.70;100.00
7178;BME280;3630;42.146;24.756;2023-03-01T05:55:06;100177.22;;;7.50;100.00
7178;BME280;3630;42.146;24.756;2023-03-01T05:57:33;100209.63;;;7.71;100.00
7178;BME280;3630;42.146;24.756;2023-03-01T06:00:00;100191.38;;;7.62;100.00
7178;BME280;3630;42.146;24.756;2023-03-01T06:02:27;100224.16;;;7.95;100.00
7178;BME280;3630;42.146;24.756;2023-03-01T06:04:54;100225.41;;;7.82;100.00
7178;BME280;3630;42.146;24.756;2023-03-01T06:07:22;100229.91;;;7.89;100.00
7178;BME280;3630;42.146;24.756;2023-03-01T06:09:49;100230.84;;;7.91;100.00
7178;BME280;3630;42.146;24.756;2023-03-01T06:12:16;100227.38;;;7.89;100.00
7178;BME280;3630;42.146;24.756;2023-03-01T06:14:45;100224.88;;;7.91;100.00
7178;BME280;3630;42.146;24.756;2023-03-01T06:17:12;100231.84;;;7.95;100.00
7178;BME280;3630;42.146;24.756;2023-03-01T06:19:38;100223.47;;;7.99;100.00
7178;BME280;3630;42.146;24.756;2023-03-01T06:22:05;100228.72;;;8.02;100.00
7178;BME280;3630;42.146;24.756;2023-03-01T06:24:34;100221.22;;;8.06;100.00
7178;BME280;3630;42.146;24.756;2023-03-01T06:27:01;100222.00;;;8.05;100.00
7178;BME280;3630;42.146;24.756;2023-03-01T06:29:28;100221.59;;;8.17;100.00
7178;BME280;3630;42.146;24.756;2023-03-01T06:31:54;100222.59;;;8.20;100.00
7178;BME280;3630;42.146;24.756;2023-03-01T06:34:21;100216.19;;;8.09;100.00
7178;BME280;3630;42.146;24.756;2023-03-01T06:36:48;100199.72;;;8.03;100.00
7178;BME280;3630;42.146;24.756;2023-03-01T06:39:15;100225.91;;;8.18;100.00
7178;BME280;3630;42.146;24.756;2023-03-01T06:41:44;100221.72;;;8.20;100.00
7178;BME280;3630;42.146;24.756;2023-03-01T06:44:11;100219.19;;;8.21;100.00
7178;BME280;3630;42.146;24.756;2023-03-01T06:46:38;100224.66;;;8.29;100.00
7178;BME280;3630;42.146;24.756;2023-03-01T06:49:05;100221.69;;;8.18;100.00
7178;BME280;3630;42.146;24.756;2023-03-01T06:51:35;100225.09;;;8.19;100.00
7178;BME280;3630;42.146;24.756;2023-03-01T06:54:02;100203.22;;;8.05;100.00
7178;BME280;3630;42.146;24.756;2023-03-01T06:56:29;100226.78;;;8.18;100.00
7178;BME280;3630;42.146;24.756;2023-03-01T06:58:57;100223.16;;;8.13;100.00
7178;BME280;3630;42.146;24.756;2023-03-01T07:01:24;100228.47;;;8.18;100.00
7178;BME280;3630;42.146;24.756;2023-03-01T07:03:51;100228.75;;;8.25;100.00
7178;BME280;3630;42.146;24.756;2023-03-01T07:06:18;100230.06;;;8.37;100.00
7178;BME280;3630;42.146;24.756;2023-03-01T07:08:45;100229.19;;;8.36;100.00
7178;BME280;3630;42.146;24.756;2023-03-01T07:11:12;100229.69;;;8.50;100.00
7178;BME280;3630;42.146;24.756;2023-03-01T07:13:39;100221.34;;;8.55;100.00
7178;BME280;3630;42.146;24.756;2023-03-01T07:16:07;100230.06;;;8.60;100.00
7178;BME280;3630;42.146;24.756;2023-03-01T07:18:34;100234.38;;;8.61;100.00
7178;BME280;3630;42.146;24.756;2023-03-01T07:21:04;100235.19;;;8.60;100.00
7178;BME280;3630;42.146;24.756;2023-03-01T07:23:31;100228.91;;;8.52;100.00
7178;BME280;3630;42.146;24.756;2023-03-01T07:25:58;100230.81;;;8.58;100.00
7178;BME280;3630;42.146;24.756;2023-03-01T07:28:25;100224.66;;;8.76;100.00
7178;BME280;3630;42.146;24.756;2023-03-01T07:30:53;100228.19;;;8.80;100.00
7178;BME280;3630;42.146;24.756;2023-03-01T07:33:21;100230.09;;;8.85;100.00
7178;BME280;3630;42.146;24.756;2023-03-01T07:35:48;100219.25;;;8.93;100.00
7178;BME280;3630;42.146;24.756;2023-03-01T07:38:14;100224.75;;;9.03;99.54
7178;BME280;3630;42.146;24.756;2023-03-01T07:40:41;100222.22;;;9.05;99.37
7178;BME280;3630;42.146;24.756;2023-03-01T07:43:08;100222.13;;;9.02;98.88
7178;BME280;3630;42.146;24.756;2023-03-01T07:45:35;100213.56;;;9.01;98.55
7178;BME280;3630;42.146;24.756;2023-03-01T07:48:02;100207.50;;;8.99;97.33
7178;BME280;3630;42.146;24.756;2023-03-01T07:50:30;100213.84;;;8.85;97.36
7178;BME280;3630;42.146;24.756;2023-03-01T07:52:57;100213.69;;;8.80;97.07
7178;BME280;3630;42.146;24.756;2023-03-01T07:55:24;100212.34;;;8.66;97.66
7178;BME280;3630;42.146;24.756;2023-03-01T07:57:51;100217.28;;;8.85;98.15
7178;BME280;3630;42.146;24.756;2023-03-01T08:00:18;100207.28;;;8.93;97.25
7178;BME280;3630;42.146;24.756;2023-03-01T08:02:45;100207.84;;;8.84;97.30
7178;BME280;3630;42.146;24.756;2023-03-01T08:05:12;100210.81;;;8.95;97.46
7178;BME280;3630;42.146;24.756;2023-03-01T08:07:40;100208.38;;;9.00;96.96
7178;BME280;3630;42.146;24.756;2023-03-01T08:10:08;100217.72;;;8.98;96.96
7178;BME280;3630;42.146;24.756;2023-03-01T08:12:35;100209.59;;;8.85;96.69
7178;BME280;3630;42.146;24.756;2023-03-01T08:15:02;100212.59;;;8.98;97.19
7178;BME280;3630;42.146;24.756;2023-03-01T08:17:29;100214.28;;;8.97;96.72
7178;BME280;3630;42.146;24.756;2023-03-01T08:19:56;100212.69;;;9.01;97.17
7178;BME280;3630;42.146;24.756;2023-03-01T08:22:22;100210.03;;;8.98;96.93
7178;BME280;3630;42.146;24.756;2023-03-01T08:24:51;100212.19;;;9.11;96.54
7178;BME280;3630;42.146;24.756;2023-03-01T08:27:18;100216.31;;;9.07;96.71
7178;BME280;3630;42.146;24.756;2023-03-01T08:29:45;100206.03;;;8.80;97.17
7178;BME280;3630;42.146;24.756;2023-03-01T08:32:12;100206.94;;;8.82;98.07
7178;BME280;3630;42.146;24.756;2023-03-01T08:34:38;100204.19;;;9.02;97.46
7178;BME280;3630;42.146;24.756;2023-03-01T08:37:05;100205.31;;;9.10;97.72
7178;BME280;3630;42.146;24.756;2023-03-01T08:39:32;100201.41;;;8.96;96.78
7178;BME280;3630;42.146;24.756;2023-03-01T08:42:00;100209.81;;;8.92;97.04
7178;BME280;3630;42.146;24.756;2023-03-01T08:44:27;100209.31;;;9.02;97.00
7178;BME280;3630;42.146;24.756;2023-03-01T08:46:54;100212.41;;;9.17;97.23
7178;BME280;3630;42.146;24.756;2023-03-01T08:49:21;100216.84;;;9.22;97.15
7178;BME280;3630;42.146;24.756;2023-03-01T08:51:49;100209.50;;;9.33;97.33
7178;BME280;3630;42.146;24.756;2023-03-01T08:54:17;100206.97;;;9.34;95.77
7178;BME280;3630;42.146;24.756;2023-03-01T08:56:45;100206.31;;;9.40;95.08
7178;BME280;3630;42.146;24.756;2023-03-01T08:59:15;100206.59;;;9.49;95.61
7178;BME280;3630;42.146;24.756;2023-03-01T09:01:42;100200.03;;;9.57;95.15
7178;BME280;3630;42.146;24.756;2023-03-01T09:04:09;100204.81;;;9.46;95.14
7178;BME280;3630;42.146;24.756;2023-03-01T09:06:37;100205.16;;;9.57;95.90
7178;BME280;3630;42.146;24.756;2023-03-01T09:09:05;100204.50;;;9.64;95.32
7178;BME280;3630;42.146;24.756;2023-03-01T09:11:32;100203.06;;;9.72;95.42
7178;BME280;3630;42.146;24.756;2023-03-01T09:13:59;100199.31;;;9.61;94.46
7178;BME280;3630;42.146;24.756;2023-03-01T09:16:27;100081.44;;;8.84;94.73
7178;BME280;3630;42.146;24.756;2023-03-01T09:18:55;100202.03;;;9.39;94.16
7178;BME280;3630;42.146;24.756;2023-03-01T09:21:23;100217.53;;;9.43;94.45
7178;BME280;3630;42.146;24.756;2023-03-01T09:23:50;100216.84;;;9.47;95.25
7178;BME280;3630;42.146;24.756;2023-03-01T09:26:19;100215.06;;;9.46;95.21
7178;BME280;3630;42.146;24.756;2023-03-01T09:28:47;100205.53;;;9.42;96.80
7178;BME280;3630;42.146;24.756;2023-03-01T09:31:16;100205.03;;;9.53;96.61
7178;BME280;3630;42.146;24.756;2023-03-01T09:33:46;100210.38;;;9.60;95.71
7178;BME280;3630;42.146;24.756;2023-03-01T09:36:15;100211.47;;;9.67;95.42
7178;BME280;3630;42.146;24.756;2023-03-01T09:38:42;100200.13;;;9.60;94.74
7178;BME280;3630;42.146;24.756;2023-03-01T09:41:10;100190.84;;;9.64;94.74
7178;BME280;3630;42.146;24.756;2023-03-01T09:43:42;100205.28;;;9.62;93.55
7178;BME280;3630;42.146;24.756;2023-03-01T09:46:13;100206.13;;;9.61;92.86
7178;BME280;3630;42.146;24.756;2023-03-01T09:48:44;100195.91;;;9.62;93.20
7178;BME280;3630;42.146;24.756;2023-03-01T09:51:17;100200.06;;;9.59;93.66
7178;BME280;3630;42.146;24.756;2023-03-01T09:53:45;100184.09;;;9.40;94.04
7178;BME280;3630;42.146;24.756;2023-03-01T09:56:16;100171.03;;;9.33;95.74
7178;BME280;3630;42.146;24.756;2023-03-01T09:58:51;100189.69;;;9.29;95.96
7178;BME280;3630;42.146;24.756;2023-03-01T10:01:29;100188.31;;;9.12;97.02
7178;BME280;3630;42.146;24.756;2023-03-01T10:04:08;100154.53;;;8.98;97.81
7178;BME280;3630;42.146;24.756;2023-03-01T10:06:39;100175.56;;;9.15;98.40
7178;BME280;3630;42.146;24.756;2023-03-01T10:09:12;100174.75;;;9.16;97.97
7178;BME280;3630;42.146;24.756;2023-03-01T10:11:43;100180.44;;;9.34;98.18
7178;BME280;3630;42.146;24.756;2023-03-01T10:14:22;100086.56;;;8.84;96.94
7178;BME280;3630;42.146;24.756;2023-03-01T10:16:52;100172.53;;;9.26;96.53
7178;BME280;3630;42.146;24.756;2023-03-01T10:19:29;100166.16;;;9.40;96.91
7178;BME280;3630;42.146;24.756;2023-03-01T10:22:03;100172.34;;;9.47;96.32
7178;BME280;3630;42.146;24.756;2023-03-01T10:24:32;100138.75;;;9.39;95.07
7178;BME280;3630;42.146;24.756;2023-03-01T10:27:05;100132.59;;;9.34;94.20
7178;BME280;3630;42.146;24.756;2023-03-01T10:29:39;100169.28;;;9.32;94.50
7178;BME280;3630;42.146;24.756;2023-03-01T10:32:09;100165.78;;;9.28;96.16
7178;BME280;3630;42.146;24.756;2023-03-01T10:34:38;100170.19;;;9.34;96.79
7178;BME280;3630;42.146;24.756;2023-03-01T10:37:10;100166.94;;;9.38;97.61
7178;BME280;3630;42.146;24.756;2023-03-01T10:39:54;100166.47;;;9.24;98.04
7178;BME280;3630;42.146;24.756;2023-03-01T10:42:26;100168.03;;;9.19;98.16
7178;BME280;3630;42.146;24.756;2023-03-01T10:44:54;100163.25;;;9.30;99.02
7178;BME280;3630;42.146;24.756;2023-03-01T10:47:24;100145.75;;;9.17;98.80
7178;BME280;3630;42.146;24.756;2023-03-01T10:49:58;100157.69;;;9.16;98.77
7178;BME280;3630;42.146;24.756;2023-03-01T10:52:28;100121.81;;;8.91;100.00
7178;BME280;3630;42.146;24.756;2023-03-01T10:54:57;100149.31;;;9.22;100.00
7178;BME280;3630;42.146;24.756;2023-03-01T10:57:30;100157.47;;;9.37;99.75
7178;BME280;3630;42.146;24.756;2023-03-01T11:00:14;100162.59;;;9.37;99.13
7178;BME280;3630;42.146;24.756;2023-03-01T11:02:43;100148.16;;;9.39;98.17
7178;BME280;3630;42.146;24.756;2023-03-01T11:05:17;100139.09;;;9.50;98.12
7178;BME280;3630;42.146;24.756;2023-03-01T11:07:49;100142.88;;;9.61;97.41
7178;BME280;3630;42.146;24.756;2023-03-01T11:10:18;100130.97;;;9.65;97.07
7178;BME280;3630;42.146;24.756;2023-03-01T11:12:45;100133.81;;;9.45;96.28
7178;BME280;3630;42.146;24.756;2023-03-01T11:15:21;100119.75;;;9.33;96.48
7178;BME280;3630;42.146;24.756;2023-03-01T11:17:49;100127.25;;;9.27;97.39
7178;BME280;3630;42.146;24.756;2023-03-01T11:20:24;100117.50;;;9.43;97.54
7178;BME280;3630;42.146;24.756;2023-03-01T11:22:54;100115.63;;;9.38;96.90
7178;BME280;3630;42.146;24.756;2023-03-01T11:25:25;100113.78;;;9.34;96.33
7178;BME280;3630;42.146;24.756;2023-03-01T11:27:53;100115.91;;;9.47;95.72
7178;BME280;3630;42.146;24.756;2023-03-01T11:30:25;100106.59;;;9.50;94.81
7178;BME280;3630;42.146;24.756;2023-03-01T11:33:07;100104.47;;;9.36;95.50
7178;BME280;3630;42.146;24.756;2023-03-01T11:35:42;100102.78;;;9.36;96.55
7178;BME280;3630;42.146;24.756;2023-03-01T11:38:17;100094.25;;;9.37;96.20
7178;BME280;3630;42.146;24.756;2023-03-01T11:40:49;100088.63;;;9.49;96.31
7178;BME280;3630;42.146;24.756;2023-03-01T11:43:23;100089.53;;;9.51;95.52
7178;BME280;3630;42.146;24.756;2023-03-01T11:52:17;100073.66;;;9.64;96.04
7178;BME280;3630;42.146;24.756;2023-03-01T11:54:57;100072.34;;;9.77;94.76
7178;BME280;3630;42.146;24.756;2023-03-01T11:57:40;100067.31;;;9.81;94.09
7178;BME280;3630;42.146;24.756;2023-03-01T12:00:30;100052.53;;;9.73;92.89
7178;BME280;3630;42.146;24.756;2023-03-01T12:06:23;100074.00;;;9.75;90.69
7178;BME280;3630;42.146;24.756;2023-03-01T12:09:02;100071.66;;;9.84;91.48
7178;BME280;3630;42.146;24.756;2023-03-01T12:11:42;100073.81;;;10.00;91.55
7178;BME280;3630;42.146;24.756;2023-03-01T12:17:32;100066.53;;;10.14;90.36
7178;BME280;3630;42.146;24.756;2023-03-01T12:20:18;100071.03;;;10.21;90.23
7178;BME280;3630;42.146;24.756;2023-03-01T12:22:59;100065.28;;;10.29;90.46
7178;BME280;3630;42.146;24.756;2023-03-01T12:25:35;100061.88;;;10.00;89.35
7178;BME280;3630;42.146;24.756;2023-03-01T12:28:26;100059.22;;;9.97;90.09
7178;BME280;3630;42.146;24.756;2023-03-01T12:31:16;99974.06;;;9.49;89.18
7178;BME280;3630;42.146;24.756;2023-03-01T12:33:56;100049.28;;;9.78;89.33
7178;BME280;3630;42.146;24.756;2023-03-01T12:36:44;100052.00;;;9.84;89.51
7178;BME280;3630;42.146;24.756;2023-03-01T12:39:31;100049.28;;;10.09;89.50
7178;BME280;3630;42.146;24.756;2023-03-01T12:42:05;100051.22;;;10.17;89.03
7178;BME280;3630;42.146;24.756;2023-03-01T12:44:52;100044.44;;;10.19;88.17
7178;BME280;3630;42.146;24.756;2023-03-01T12:47:33;100045.47;;;10.25;89.06
7178;BME280;3630;42.146;24.756;2023-03-01T12:50:12;100045.34;;;10.21;89.72
7178;BME280;3630;42.146;24.756;2023-03-01T12:52:44;100048.31;;;10.04;89.14
7178;BME280;3630;42.146;24.756;2023-03-01T12:55:23;100041.47;;;10.05;89.80
7178;BME280;3630;42.146;24.756;2023-03-01T12:57:56;100046.28;;;9.94;89.28
7178;BME280;3630;42.146;24.756;2023-03-01T13:00:32;100045.59;;;9.69;90.78
7178;BME280;3630;42.146;24.756;2023-03-01T13:03:10;100047.56;;;9.77;90.67
7178;BME280;3630;42.146;24.756;2023-03-01T13:05:45;100011.31;;;9.37;89.99
7178;BME280;3630;42.146;24.756;2023-03-01T13:08:16;100036.84;;;9.62;90.14
7178;BME280;3630;42.146;24.756;2023-03-01T13:10:49;100045.00;;;9.49;90.45
7178;BME280;3630;42.146;24.756;2023-03-01T13:13:22;100058.06;;;9.57;90.62
7178;BME280;3630;42.146;24.756;2023-03-01T13:15:50;100057.97;;;9.54;91.31
7178;BME280;3630;42.146;24.756;2023-03-01T13:18:31;100040.84;;;9.53;91.64
7178;BME280;3630;42.146;24.756;2023-03-01T13:21:00;100035.56;;;9.48;92.60
7178;BME280;3630;42.146;24.756;2023-03-01T13:23:30;100040.97;;;9.57;92.46
7178;BME280;3630;42.146;24.756;2023-03-01T13:26:04;100039.84;;;9.47;91.77
7178;BME280;3630;42.146;24.756;2023-03-01T13:28:55;100051.41;;;9.63;91.92
7178;BME280;3630;42.146;24.756;2023-03-01T13:31:59;100052.69;;;9.77;91.79